createdAt,value
2018-04-08T00:02:12.926Z,10.73
2018-04-08T00:04:40.536Z,9.03
2018-04-08T00:07:08.237Z,8.73
2018-04-08T00:09:35.836Z,8.53
2018-04-08T00:12:04.073Z,10.37
2018-04-08T00:14:31.631Z,9.63
2018-04-08T00:16:59.586Z,9.00
2018-04-08T00:19:27.939Z,7.30
2018-04-08T00:21:55.576Z,7.13
2018-04-08T00:24:23.178Z,6.67
2018-04-08T00:26:51.566Z,8.17
2018-04-08T00:29:20.293Z,9.53
2018-04-08T00:31:47.876Z,8.57
2018-04-08T00:34:15.843Z,10.63
2018-04-08T00:36:43.454Z,9.53
2018-04-08T00:39:11.008Z,14.30
2018-04-08T00:41:38.638Z,10.63
2018-04-08T00:44:06.498Z,12.70
2018-04-08T00:46:34.782Z,11.03
2018-04-08T00:49:03.135Z,9.13
2018-04-08T00:51:31.471Z,9.70
2018-04-08T00:57:04.375Z,11.50
2018-04-08T00:59:32.135Z,8.47
2018-04-08T01:02:00.437Z,9.30
2018-04-08T01:04:28.148Z,8.53
2018-04-08T01:06:56.612Z,9.50
2018-04-08T01:09:24.263Z,11.17
2018-04-08T01:11:51.865Z,8.33
2018-04-08T01:14:20.502Z,7.53
2018-04-08T01:16:48.134Z,10.40
2018-04-08T01:19:16.193Z,8.93
2018-04-08T01:21:43.748Z,8.17
2018-04-08T01:24:12.097Z,6.90
2018-04-08T01:26:39.694Z,10.10
2018-04-08T01:29:08.012Z,7.10
2018-04-08T01:31:36.021Z,6.50
2018-04-08T01:34:04.384Z,6.57
2018-04-08T01:36:32.734Z,6.73
2018-04-08T01:39:00.346Z,7.93
2018-04-08T01:41:27.949Z,7.97
2018-04-08T01:43:55.545Z,8.17
2018-04-08T01:46:23.125Z,8.93
2018-04-08T01:48:51.874Z,8.20
2018-04-08T01:51:19.435Z,8.47
2018-04-08T01:53:47.343Z,10.87
2018-04-08T01:56:14.912Z,7.93
2018-04-08T01:58:42.825Z,8.03
2018-04-08T02:01:10.480Z,8.50
2018-04-08T02:03:38.062Z,7.40
2018-04-08T02:06:05.643Z,8.63
2018-04-08T02:08:33.980Z,9.50
2018-04-08T02:11:01.855Z,11.73
2018-04-08T02:13:29.456Z,8.47
2018-04-08T02:15:57.488Z,9.87
2018-04-08T02:18:25.057Z,9.93
2018-04-08T02:20:52.976Z,7.90
2018-04-08T02:23:20.540Z,9.83
2018-04-08T02:25:48.387Z,7.87
2018-04-08T02:28:16.001Z,9.10
2018-04-08T02:30:43.575Z,10.10
2018-04-08T02:33:12.414Z,14.90
2018-04-08T02:35:40.829Z,10.90
2018-04-08T02:38:08.857Z,11.33
2018-04-08T02:40:36.484Z,8.57
2018-04-08T02:43:04.081Z,7.40
2018-04-08T02:45:31.661Z,8.07
2018-04-08T02:47:59.398Z,8.30
2018-04-08T02:50:26.979Z,8.53
2018-04-08T02:52:54.582Z,9.40
2018-04-08T02:55:22.187Z,6.83
2018-04-08T02:57:49.762Z,11.77
2018-04-08T03:00:17.388Z,10.83
2018-04-08T03:02:44.968Z,8.03
2018-04-08T03:05:12.561Z,10.70
2018-04-08T03:07:40.118Z,10.07
2018-04-08T03:10:07.713Z,10.43
2018-04-08T03:12:36.057Z,10.17
2018-04-08T03:15:03.761Z,10.90
2018-04-08T03:17:31.358Z,9.20
2018-04-08T03:19:59.491Z,9.90
2018-04-08T03:22:27.062Z,7.47
2018-04-08T03:24:55.046Z,7.43
2018-04-08T03:27:22.626Z,8.83
2018-04-08T03:29:50.417Z,8.10
2018-04-08T03:32:19.310Z,7.80
2018-04-08T03:34:47.691Z,8.83
2018-04-08T03:37:16.061Z,10.03
2018-04-08T03:39:43.662Z,7.20
2018-04-08T03:42:11.253Z,8.43
2018-04-08T03:44:38.849Z,9.70
2018-04-08T03:47:07.232Z,11.47
2018-04-08T03:49:35.935Z,9.73
2018-04-08T03:52:03.547Z,8.07
2018-04-08T03:54:31.165Z,10.23
2018-04-08T03:56:58.741Z,10.00
2018-04-08T03:59:26.321Z,10.17
2018-04-08T04:01:53.929Z,7.43
2018-04-08T04:04:22.283Z,7.57
2018-04-08T04:06:50.114Z,12.17
2018-04-08T04:09:17.675Z,12.47
2018-04-08T04:11:45.884Z,9.23
2018-04-08T04:14:13.502Z,9.67
2018-04-08T04:16:41.708Z,9.93
2018-04-08T04:19:21.296Z,14.67
2018-04-08T04:22:01.098Z,9.10
2018-04-08T04:24:40.604Z,9.07
2018-04-08T04:27:08.203Z,9.13
2018-04-08T04:29:36.304Z,13.53
2018-04-08T04:32:03.884Z,12.93
2018-04-08T04:34:32.161Z,9.73
2018-04-08T04:36:59.789Z,9.23
2018-04-08T04:39:28.144Z,12.13
2018-04-08T04:41:56.067Z,6.83
2018-04-08T04:44:23.662Z,9.00
2018-04-08T04:46:51.648Z,9.33
2018-04-08T04:49:19.212Z,10.27
2018-04-08T04:51:47.108Z,8.33
2018-04-08T04:54:14.738Z,10.67
2018-04-08T04:56:43.118Z,13.43
2018-04-08T04:59:12.051Z,10.20
2018-04-08T05:01:39.650Z,9.70
2018-04-08T05:04:07.799Z,11.77
2018-04-08T05:06:35.421Z,10.67
2018-04-08T05:09:03.799Z,9.90
2018-04-08T05:11:32.586Z,11.53
2018-04-08T05:14:00.964Z,9.47
2018-04-08T05:16:29.309Z,11.47
2018-04-08T05:18:57.413Z,7.50
2018-04-08T05:21:25.853Z,10.70
2018-04-08T05:24:12.394Z,14.03
2018-04-08T05:26:39.986Z,11.27
2018-04-08T05:29:07.929Z,10.87
2018-04-08T05:31:36.360Z,10.87
2018-04-08T05:34:03.966Z,9.47
2018-04-08T05:36:51.262Z,7.53
2018-04-08T05:39:18.857Z,11.37
2018-04-08T05:41:46.455Z,14.30
2018-04-08T05:44:14.097Z,10.60
2018-04-08T05:46:41.733Z,15.70
2018-04-08T05:49:10.909Z,11.23
2018-04-08T05:51:39.259Z,11.00
2018-04-08T05:54:08.208Z,16.10
2018-04-08T05:56:35.786Z,10.27
2018-04-08T05:59:03.957Z,10.47
2018-04-08T06:01:31.623Z,9.33
2018-04-08T06:03:59.197Z,10.80
2018-04-08T06:06:26.803Z,11.93
2018-04-08T06:08:55.129Z,9.83
2018-04-08T06:11:22.984Z,11.57
2018-04-08T06:13:50.563Z,8.10
2018-04-08T06:16:19.401Z,8.97
2018-04-08T06:18:47.026Z,9.13
2018-04-08T06:21:14.629Z,9.60
2018-04-08T06:23:42.242Z,11.60
2018-04-08T06:26:09.827Z,11.07
2018-04-08T06:28:38.476Z,9.53
2018-04-08T06:31:06.092Z,10.03
2018-04-08T06:33:34.140Z,9.37
2018-04-08T06:36:01.722Z,9.17
2018-04-08T06:38:30.092Z,11.33
2018-04-08T06:40:58.741Z,9.23
2018-04-08T06:43:26.346Z,10.80
2018-04-08T06:45:55.094Z,9.90
2018-04-08T06:48:23.923Z,10.97
2018-04-08T06:50:51.548Z,12.23
2018-04-08T06:53:19.591Z,11.97
2018-04-08T06:55:47.177Z,9.37
2018-04-08T06:58:15.656Z,11.40
2018-04-08T07:00:43.267Z,13.37
2018-04-08T07:03:10.874Z,10.53
2018-04-08T07:05:38.508Z,8.77
2018-04-08T07:08:06.105Z,10.97
2018-04-08T07:10:33.743Z,10.17
2018-04-08T07:13:01.322Z,9.90
2018-04-08T07:15:29.106Z,58.87
2018-04-08T07:17:56.736Z,25.57
2018-04-08T07:20:24.929Z,14.20
2018-04-08T07:22:52.501Z,12.53
2018-04-08T07:25:21.224Z,10.90
2018-04-08T07:27:48.854Z,12.03
2018-04-08T07:30:16.456Z,11.67
2018-04-08T07:32:44.069Z,10.77
2018-04-08T07:35:11.646Z,11.50
2018-04-08T07:37:39.251Z,12.57
2018-04-08T07:40:06.821Z,12.23
2018-04-08T07:42:34.575Z,11.03
2018-04-08T07:45:02.197Z,12.43
2018-04-08T07:47:30.486Z,13.27
2018-04-08T07:49:58.145Z,12.20
2018-04-08T07:52:26.160Z,12.93
2018-04-08T07:54:53.763Z,13.30
2018-04-08T07:57:21.772Z,11.17
2018-04-08T07:59:49.440Z,13.67
2018-04-08T08:02:18.091Z,10.30
2018-04-08T08:04:46.284Z,10.97
2018-04-08T08:07:13.893Z,10.87
2018-04-08T08:09:42.241Z,10.90
2018-04-08T08:12:09.997Z,14.50
2018-04-08T08:14:37.584Z,11.53
2018-04-08T08:17:06.606Z,9.13
2018-04-08T08:19:34.227Z,10.13
2018-04-08T08:22:02.369Z,10.03
2018-04-08T08:24:29.973Z,9.37
2018-04-08T08:26:57.656Z,10.07
2018-04-08T08:29:25.272Z,15.00
2018-04-08T08:31:52.922Z,11.13
2018-04-08T08:34:20.551Z,12.87
2018-04-08T08:36:48.140Z,12.40
2018-04-08T08:39:15.932Z,13.03
2018-04-08T08:41:43.548Z,11.23
2018-04-08T08:44:11.198Z,13.10
2018-04-08T08:46:38.790Z,14.33
2018-04-08T08:49:06.444Z,11.73
2018-04-08T08:51:34.068Z,13.17
2018-04-08T08:54:01.662Z,12.93
2018-04-08T08:56:29.256Z,15.70
2018-04-08T08:58:56.947Z,9.87
2018-04-08T09:01:24.544Z,13.10
2018-04-08T09:03:52.373Z,14.40
2018-04-08T09:06:19.960Z,13.57
2018-04-08T09:08:47.584Z,14.40
2018-04-08T09:11:15.214Z,15.97
2018-04-08T09:13:43.595Z,11.17
2018-04-08T09:16:11.383Z,14.27
2018-04-08T09:18:39.498Z,11.83
2018-04-08T09:24:18.169Z,12.67
2018-04-08T09:26:45.949Z,14.40
2018-04-08T09:29:15.094Z,17.33
2018-04-08T09:31:43.325Z,13.80
2018-04-08T09:34:11.744Z,13.20
2018-04-08T09:36:39.889Z,18.47
2018-04-08T09:39:08.313Z,18.20
2018-04-08T09:41:35.986Z,15.20
2018-04-08T09:44:03.621Z,18.57
2018-04-08T09:46:31.244Z,15.17
2018-04-08T09:49:00.062Z,15.13
2018-04-08T09:51:27.654Z,16.37
2018-04-08T09:53:55.902Z,15.63
2018-04-08T09:56:24.399Z,15.93
2018-04-08T09:58:51.978Z,14.00
2018-04-08T10:01:25.969Z,15.97
2018-04-08T10:03:53.824Z,16.83
2018-04-08T10:06:21.416Z,13.90
2018-04-08T10:08:49.054Z,13.13
2018-04-08T10:11:16.706Z,14.17
2018-04-08T10:13:48.058Z,16.53
2018-04-08T10:16:16.330Z,13.40
2018-04-08T10:18:46.994Z,11.67
2018-04-08T10:21:15.425Z,14.27
2018-04-08T10:23:43.024Z,14.97
2018-04-08T10:26:11.383Z,13.87
2018-04-08T10:28:38.985Z,14.47
2018-04-08T10:31:06.776Z,14.20
2018-04-08T10:33:35.542Z,20.23
2018-04-08T10:36:03.893Z,15.63
2018-04-08T10:38:33.272Z,16.10
2018-04-08T10:41:01.338Z,17.00
2018-04-08T10:43:30.444Z,14.40
2018-04-08T10:46:02.836Z,18.17
2018-04-08T10:48:31.050Z,17.30
2018-04-08T10:50:59.432Z,17.60
2018-04-08T10:53:27.794Z,18.50
2018-04-08T10:55:56.837Z,15.27
2018-04-08T10:58:24.483Z,14.00
2018-04-08T11:00:52.568Z,16.90
2018-04-08T11:03:20.170Z,18.67
2018-04-08T11:05:47.780Z,18.00
2018-04-08T11:08:15.513Z,18.63
2018-04-08T11:10:43.876Z,19.53
2018-04-08T11:13:12.064Z,20.17
2018-04-08T11:15:40.650Z,17.30
2018-04-08T11:18:09.018Z,17.20
2018-04-08T11:20:37.873Z,21.87
2018-04-08T11:23:05.475Z,15.10
2018-04-08T11:25:33.907Z,18.23
2018-04-08T11:28:01.713Z,13.23
2018-04-08T11:30:29.406Z,16.93
2018-04-08T11:32:58.777Z,13.37
2018-04-08T11:35:27.948Z,17.47
2018-04-08T11:37:55.530Z,14.00
2018-04-08T11:40:23.260Z,14.90
2018-04-08T11:42:50.876Z,10.97
2018-04-08T11:45:19.307Z,12.37
2018-04-08T11:47:47.302Z,13.37
2018-04-08T11:50:15.694Z,15.30
2018-04-08T11:52:44.097Z,14.53
2018-04-08T11:55:12.425Z,14.53
2018-04-08T11:57:40.008Z,15.67
2018-04-08T12:00:08.786Z,16.43
2018-04-08T12:02:36.453Z,18.70
2018-04-08T12:05:05.809Z,16.53
2018-04-08T12:07:33.985Z,16.47
2018-04-08T12:10:01.640Z,15.00
2018-04-08T12:12:30.293Z,18.83
2018-04-08T12:27:58.610Z,19.10
2018-04-08T12:30:28.139Z,18.57
2018-04-08T12:32:56.613Z,18.33
2018-04-08T12:35:25.127Z,16.93
2018-04-08T12:37:52.874Z,16.73
2018-04-08T12:40:21.242Z,16.33
2018-04-08T12:42:49.568Z,17.43
2018-04-08T12:45:17.201Z,16.87
2018-04-08T12:47:45.539Z,19.23
2018-04-08T12:50:13.438Z,15.70
2018-04-08T12:52:41.884Z,16.70
2018-04-08T12:55:10.126Z,16.87
2018-04-08T12:57:37.803Z,17.97
2018-04-08T13:00:06.017Z,21.30
2018-04-08T13:02:35.216Z,20.40
2018-04-08T13:05:03.706Z,17.20
2018-04-08T13:07:32.057Z,21.70
2018-04-08T13:10:01.304Z,20.13
2018-04-08T13:12:28.986Z,18.47
2018-04-08T13:14:56.655Z,18.00
2018-04-08T13:17:24.355Z,15.67
2018-04-08T13:19:51.988Z,15.23
2018-04-08T13:22:19.659Z,22.23
2018-04-08T13:24:47.268Z,19.30
2018-04-08T13:27:15.894Z,16.20
2018-04-08T13:29:43.547Z,24.30
2018-04-08T13:32:11.762Z,14.93
2018-04-08T13:34:41.001Z,19.23
2018-04-08T13:37:10.851Z,17.63
2018-04-08T13:39:40.972Z,12.63
2018-04-08T13:42:10.941Z,21.17
2018-04-08T13:44:40.986Z,17.73
2018-04-08T13:47:11.059Z,13.87
2018-04-08T13:49:41.048Z,12.37
2018-04-08T13:52:11.148Z,12.53
2018-04-08T13:54:41.191Z,14.30
2018-04-08T13:57:11.201Z,15.23
2018-04-08T13:59:40.562Z,14.73
2018-04-08T14:02:09.896Z,16.40
2018-04-08T14:08:08.514Z,13.73
2018-04-08T14:10:37.737Z,16.30
2018-04-08T14:14:59.340Z,18.23
2018-04-08T14:17:27.434Z,15.83
2018-04-08T14:19:55.004Z,15.47
2018-04-08T14:22:22.991Z,17.75
2018-04-08T14:24:50.524Z,13.75
2018-04-08T14:27:18.605Z,19.55
2018-04-08T14:29:46.179Z,18.55
2018-04-08T14:32:13.978Z,14.68
2018-04-08T14:34:41.531Z,13.85
2018-04-08T14:37:09.084Z,16.98
2018-04-08T14:39:36.645Z,15.38
2018-04-08T14:42:04.238Z,17.27
2018-04-08T14:44:31.888Z,15.97
2018-04-08T14:46:59.423Z,15.45
2018-04-08T14:49:27.012Z,14.18
2018-04-08T14:51:55.417Z,17.45
2018-04-08T14:54:22.960Z,13.90
2018-04-08T14:56:51.023Z,13.57
2018-04-08T14:59:18.724Z,11.07
2018-04-08T15:01:46.799Z,12.57
2018-04-08T15:04:13.877Z,15.57
2018-04-08T15:06:41.418Z,11.00
2018-04-08T15:09:09.952Z,14.05
2018-04-08T15:11:37.498Z,13.40
2018-04-08T15:14:05.632Z,20.50
2018-04-08T15:16:33.151Z,9.63
2018-04-08T15:19:01.419Z,11.83
2018-04-08T15:21:29.049Z,14.40
2018-04-08T15:23:56.708Z,10.00
2018-04-08T15:26:24.360Z,14.83
2018-04-08T15:28:51.898Z,11.47
2018-04-08T15:31:19.516Z,35.77
2018-04-08T15:33:47.129Z,44.50
2018-04-08T15:36:14.741Z,34.93
2018-04-08T15:38:42.290Z,52.53
2018-04-08T15:41:09.887Z,44.83
2018-04-08T15:43:37.524Z,37.33
2018-04-08T15:46:05.812Z,19.27
2018-04-08T15:48:33.361Z,12.40
2018-04-08T15:51:01.590Z,10.53
2018-04-08T15:53:29.155Z,15.80
2018-04-08T15:55:57.524Z,14.37
2018-04-08T15:58:25.149Z,15.50
2018-04-08T16:00:52.714Z,14.70
2018-04-08T16:03:20.268Z,15.70
2018-04-08T16:05:47.799Z,17.07
2018-04-08T16:10:57.615Z,18.53
2018-04-08T16:13:25.192Z,15.33
2018-04-08T16:15:52.803Z,18.70
2018-04-08T16:18:20.369Z,20.67
2018-04-08T16:20:47.910Z,26.53
2018-04-08T16:23:15.544Z,18.97
2018-04-08T16:25:43.082Z,20.87
2018-04-08T16:28:10.640Z,28.43
2018-04-08T16:30:38.228Z,23.57
2018-04-08T16:33:05.799Z,15.20
2018-04-08T16:35:33.354Z,20.53
2018-04-08T16:38:01.016Z,15.70
2018-04-08T16:40:28.692Z,21.50
2018-04-08T16:42:56.248Z,18.43
2018-04-08T16:45:23.787Z,15.27
2018-04-08T16:47:51.345Z,14.40
2018-04-08T16:50:19.410Z,12.83
2018-04-08T16:52:47.107Z,16.37
2018-04-08T16:55:14.733Z,15.27
2018-04-08T16:57:42.988Z,15.20
2018-04-08T17:00:10.649Z,15.50
2018-04-08T17:02:38.687Z,13.90
2018-04-08T17:05:06.247Z,13.73
2018-04-08T17:07:34.298Z,13.43
2018-04-08T17:10:01.888Z,10.90
2018-04-08T17:12:29.544Z,9.83
2018-04-08T17:14:57.165Z,15.10
2018-04-08T17:17:24.740Z,16.00
2018-04-08T17:19:52.366Z,16.43
2018-04-08T17:22:19.980Z,13.00
2018-04-08T17:24:48.252Z,13.90
2018-04-08T17:27:15.788Z,12.10
2018-04-08T17:29:43.949Z,11.77
2018-04-08T17:32:12.276Z,14.70
2018-04-08T17:34:39.808Z,15.93
2018-04-08T17:37:07.432Z,15.77
2018-04-08T17:39:34.985Z,16.37
2018-04-08T17:42:02.568Z,14.70
2018-04-08T17:44:30.160Z,14.87
2018-04-08T17:46:57.721Z,12.50
2018-04-08T17:49:26.088Z,15.97
2018-04-08T17:51:55.403Z,14.20
2018-04-08T17:54:22.990Z,17.73
2018-04-08T17:56:50.975Z,50.23
2018-04-08T17:59:18.610Z,27.53
2018-04-08T18:01:46.181Z,27.97
2018-04-08T18:04:15.223Z,18.97
2018-04-08T18:06:42.907Z,21.80
2018-04-08T18:09:11.287Z,18.00
2018-04-08T18:11:38.928Z,16.93
2018-04-08T18:14:06.492Z,18.27
2018-04-08T18:16:34.120Z,21.10
2018-04-08T18:19:01.652Z,25.80
2018-04-08T18:21:29.223Z,32.40
2018-04-08T18:23:56.809Z,28.17
2018-04-08T18:26:24.414Z,31.30
2018-04-08T18:28:51.972Z,22.23
2018-04-08T18:31:19.568Z,21.13
2018-04-08T18:33:47.161Z,23.80
2018-04-08T18:36:14.756Z,19.07
2018-04-08T18:38:42.300Z,19.60
2018-04-08T18:41:10.651Z,16.43
2018-04-08T18:43:38.201Z,18.97
2018-04-08T18:46:06.329Z,17.73
2018-04-08T18:48:33.892Z,14.23
2018-04-08T18:51:02.105Z,17.90
2018-04-08T18:53:29.675Z,18.40
2018-04-08T18:55:57.289Z,19.97
2018-04-08T18:58:24.879Z,20.60
2018-04-08T19:00:52.410Z,16.47
2018-04-08T19:03:20.050Z,23.67
2018-04-08T19:05:47.603Z,20.47
2018-04-08T19:08:15.223Z,14.63
2018-04-08T19:10:42.754Z,17.00
2018-04-08T19:13:10.339Z,15.33
2018-04-08T19:15:37.870Z,16.87
2018-04-08T19:18:05.492Z,16.50
2018-04-08T19:20:33.026Z,15.90
2018-04-08T19:23:00.620Z,30.77
2018-04-08T19:25:28.180Z,15.43
2018-04-08T19:27:55.761Z,21.27
2018-04-08T19:30:23.321Z,14.27
2018-04-08T19:32:50.925Z,17.30
2018-04-08T19:35:18.487Z,15.00
2018-04-08T19:37:46.060Z,16.97
2018-04-08T19:40:13.592Z,17.13
2018-04-08T19:42:41.196Z,19.93
2018-04-08T19:45:08.750Z,23.90
2018-04-08T19:47:36.331Z,14.27
2018-04-08T19:50:03.865Z,17.77
2018-04-08T19:52:31.467Z,16.13
2018-04-08T19:54:58.990Z,18.40
2018-04-08T19:57:26.599Z,26.60
2018-04-08T19:59:54.145Z,27.60
2018-04-08T20:02:21.715Z,16.07
2018-04-08T20:04:49.258Z,15.33
2018-04-08T20:07:16.823Z,12.27
2018-04-08T20:09:44.376Z,14.80
2018-04-08T20:12:12.754Z,13.77
2018-04-08T20:14:40.291Z,16.03
2018-04-08T20:17:08.492Z,19.93
2018-04-08T20:19:36.045Z,12.80
2018-04-08T20:22:04.369Z,21.50
2018-04-08T20:24:31.977Z,16.70
2018-04-08T20:26:59.524Z,16.43
2018-04-08T20:29:27.138Z,16.80
2018-04-08T20:31:54.705Z,12.07
2018-04-08T20:34:22.305Z,12.57
2018-04-08T20:36:49.841Z,15.97
2018-04-08T20:39:17.424Z,12.43
2018-04-08T20:41:44.958Z,15.23
2018-04-08T20:44:12.543Z,18.17
2018-04-08T20:46:40.065Z,14.77
2018-04-08T20:49:07.671Z,15.30
2018-04-08T20:51:35.233Z,16.77
2018-04-08T20:54:02.802Z,15.13
2018-04-08T20:56:30.501Z,14.70
2018-04-08T20:58:58.064Z,15.70
2018-04-08T21:01:28.275Z,15.37
2018-04-08T21:03:55.797Z,16.40
2018-04-08T21:06:23.396Z,15.07
2018-04-08T21:08:50.935Z,22.27
2018-04-08T21:11:18.539Z,14.67
2018-04-08T21:13:46.108Z,15.10
2018-04-08T21:16:13.707Z,15.20
2018-04-08T21:18:41.266Z,13.87
2018-04-08T21:21:08.873Z,16.33
2018-04-08T21:23:36.429Z,16.43
2018-04-08T21:26:03.994Z,15.83
2018-04-08T21:28:31.601Z,17.20
2018-04-08T21:30:59.156Z,14.97
2018-04-08T21:33:26.716Z,13.80
2018-04-08T21:35:54.294Z,17.90
2018-04-08T21:38:21.825Z,16.23
2018-04-08T21:40:49.436Z,15.47
2018-04-08T21:43:16.995Z,13.87
2018-04-08T21:45:44.585Z,14.57
2018-04-08T21:48:12.121Z,16.30
2018-04-08T21:50:39.691Z,15.03
2018-04-08T21:53:07.229Z,18.13
2018-04-08T21:55:34.798Z,16.37
2018-04-08T21:58:02.356Z,18.23
2018-04-08T22:00:31.470Z,14.53
2018-04-08T22:03:01.567Z,15.87
2018-04-08T22:05:31.664Z,14.23
2018-04-08T22:08:01.457Z,17.53
2018-04-08T22:10:28.982Z,14.37
2018-04-08T22:13:04.112Z,18.10
2018-04-08T22:15:38.490Z,17.13
2018-04-08T22:18:09.374Z,18.03
2018-04-08T22:20:51.191Z,16.77
2018-04-08T22:23:18.776Z,14.43
2018-04-08T22:25:46.960Z,16.37
2018-04-08T22:28:17.997Z,13.37
2018-04-08T22:30:53.087Z,13.37
2018-04-08T22:33:28.048Z,15.80
2018-04-08T22:35:58.107Z,11.10
2018-04-08T22:38:33.217Z,18.37
2018-04-08T22:41:13.603Z,22.43
2018-04-08T22:43:49.351Z,16.27
2018-04-08T22:46:23.508Z,17.43
2018-04-08T22:51:53.303Z,24.40
2018-04-08T22:54:27.297Z,20.90
2018-04-08T22:57:00.474Z,21.40
2018-04-08T22:59:39.836Z,19.27
2018-04-08T23:02:16.038Z,18.03
2018-04-08T23:04:50.238Z,19.10
2018-04-08T23:07:26.604Z,18.10
2018-04-08T23:10:04.948Z,19.53
2018-04-08T23:12:41.917Z,24.33
2018-04-08T23:15:17.055Z,22.03
2018-04-08T23:17:51.912Z,29.67
2018-04-08T23:20:26.450Z,19.20
2018-04-08T23:23:13.192Z,19.20
2018-04-08T23:25:48.294Z,21.47
2018-04-08T23:28:28.539Z,23.40
2018-04-08T23:30:59.407Z,25.43
2018-04-08T23:33:32.321Z,24.43
2018-04-08T23:36:02.080Z,20.37
2018-04-08T23:38:33.083Z,22.97
2018-04-08T23:41:06.844Z,22.63
2018-04-08T23:43:39.525Z,21.73
2018-04-08T23:46:11.694Z,24.13
2018-04-08T23:48:44.090Z,21.33
2018-04-08T23:51:19.124Z,17.70
2018-04-08T23:53:51.815Z,22.83
2018-04-08T23:56:25.344Z,17.30
2018-04-08T23:58:52.938Z,18.37
